sensor_id;sensor_type;location;lat;lon;timestamp;pressure;altitude;pressure_sealevel;temperature;humidity
56719;BME280;42597;40.636;0.278;2023-05-29T00:00:25;96926.72;;;19.10;85.06
56719;BME280;42597;40.636;0.278;2023-05-29T00:02:51;96927.91;;;19.09;85.08
56719;BME280;42597;40.636;0.278;2023-05-29T00:05:17;96927.47;;;19.14;83.50
56719;BME280;42597;40.636;0.278;2023-05-29T00:07:43;96925.13;;;19.13;85.22
56719;BME280;42597;40.636;0.278;2023-05-29T00:10:10;96925.91;;;19.13;85.14
56719;BME280;42597;40.636;0.278;2023-05-29T00:12:38;96923.94;;;18.72;89.44
56719;BME280;42597;40.636;0.278;2023-05-29T00:15:05;96919.56;;;18.34;92.43
56719;BME280;42597;40.636;0.278;2023-05-29T00:17:30;96913.00;;;18.72;87.46
56719;BME280;42597;40.636;0.278;2023-05-29T00:20:00;96910.44;;;18.96;85.85
56719;BME280;42597;40.636;0.278;2023-05-29T00:22:33;96913.78;;;18.73;86.82
56719;BME280;42597;40.636;0.278;2023-05-29T00:25:05;96904.47;;;18.60;87.82
56719;BME280;42597;40.636;0.278;2023-05-29T00:27:31;96909.22;;;18.56;88.32
56719;BME280;42597;40.636;0.278;2023-05-29T00:29:59;96902.31;;;18.37;90.36
56719;BME280;42597;40.636;0.278;2023-05-29T00:32:24;96901.03;;;18.52;88.64
56719;BME280;42597;40.636;0.278;2023-05-29T00:34:51;96895.22;;;18.46;89.04
56719;BME280;42597;40.636;0.278;2023-05-29T00:37:17;96893.06;;;18.72;86.02
56719;BME280;42597;40.636;0.278;2023-05-29T00:39:42;96892.88;;;18.45;88.98
56719;BME280;42597;40.636;0.278;2023-05-29T00:42:08;96893.91;;;18.65;87.04
56719;BME280;42597;40.636;0.278;2023-05-29T00:44:34;96882.00;;;18.86;84.76
56719;BME280;42597;40.636;0.278;2023-05-29T00:47:01;96884.25;;;18.50;87.63
56719;BME280;42597;40.636;0.278;2023-05-29T00:49:27;96881.34;;;18.71;85.03
56719;BME280;42597;40.636;0.278;2023-05-29T00:51:54;96884.03;;;18.79;84.14
56719;BME280;42597;40.636;0.278;2023-05-29T00:54:23;96880.53;;;19.12;81.90
56719;BME280;42597;40.636;0.278;2023-05-29T00:56:52;96880.78;;;18.91;82.77
56719;BME280;42597;40.636;0.278;2023-05-29T00:59:19;96884.53;;;18.63;84.51
56719;BME280;42597;40.636;0.278;2023-05-29T01:01:48;96877.53;;;18.58;85.08
56719;BME280;42597;40.636;0.278;2023-05-29T01:04:15;96875.34;;;18.84;83.11
56719;BME280;42597;40.636;0.278;2023-05-29T01:06:40;96881.72;;;18.73;83.31
56719;BME280;42597;40.636;0.278;2023-05-29T01:09:06;96882.31;;;18.92;82.52
56719;BME280;42597;40.636;0.278;2023-05-29T01:14:48;96879.88;;;19.01;81.75
56719;BME280;42597;40.636;0.278;2023-05-29T01:17:32;96875.41;;;19.18;80.73
56719;BME280;42597;40.636;0.278;2023-05-29T01:25:33;96869.88;;;18.84;83.05
56719;BME280;42597;40.636;0.278;2023-05-29T01:28:01;96867.38;;;19.00;81.55
56719;BME280;42597;40.636;0.278;2023-05-29T01:30:29;96868.03;;;18.73;83.22
56719;BME280;42597;40.636;0.278;2023-05-29T01:32:56;96867.66;;;18.68;83.83
56719;BME280;42597;40.636;0.278;2023-05-29T01:35:22;96852.50;;;18.60;83.52
56719;BME280;42597;40.636;0.278;2023-05-29T01:37:48;96860.66;;;18.18;87.03
56719;BME280;42597;40.636;0.278;2023-05-29T01:40:13;96860.38;;;18.54;84.64
56719;BME280;42597;40.636;0.278;2023-05-29T01:42:39;96855.94;;;18.67;83.92
56719;BME280;42597;40.636;0.278;2023-05-29T01:45:06;96861.00;;;18.69;83.65
56719;BME280;42597;40.636;0.278;2023-05-29T01:47:33;96859.53;;;18.57;84.34
56719;BME280;42597;40.636;0.278;2023-05-29T01:49:59;96855.13;;;18.74;82.99
56719;BME280;42597;40.636;0.278;2023-05-29T01:52:25;96849.72;;;18.18;86.33
56719;BME280;42597;40.636;0.278;2023-05-29T01:54:51;96846.69;;;18.09;87.46
56719;BME280;42597;40.636;0.278;2023-05-29T01:57:17;96850.00;;;18.35;85.95
56719;BME280;42597;40.636;0.278;2023-05-29T01:59:43;96851.53;;;18.36;85.43
56719;BME280;42597;40.636;0.278;2023-05-29T02:02:09;96835.53;;;18.79;82.82
56719;BME280;42597;40.636;0.278;2023-05-29T02:04:35;96842.19;;;19.12;80.29
56719;BME280;42597;40.636;0.278;2023-05-29T02:07:01;96851.00;;;18.93;81.43
56719;BME280;42597;40.636;0.278;2023-05-29T02:09:27;96844.28;;;18.60;82.63
56719;BME280;42597;40.636;0.278;2023-05-29T02:11:54;96850.56;;;18.57;83.07
56719;BME280;42597;40.636;0.278;2023-05-29T02:14:20;96843.34;;;18.77;81.32
56719;BME280;42597;40.636;0.278;2023-05-29T02:16:45;96846.06;;;18.81;81.49
56719;BME280;42597;40.636;0.278;2023-05-29T02:19:11;96851.63;;;18.73;81.72
56719;BME280;42597;40.636;0.278;2023-05-29T02:21:40;96852.78;;;18.72;82.36
56719;BME280;42597;40.636;0.278;2023-05-29T02:24:06;96846.53;;;18.68;82.13
56719;BME280;42597;40.636;0.278;2023-05-29T02:26:32;96850.84;;;18.69;82.07
56719;BME280;42597;40.636;0.278;2023-05-29T02:28:58;96843.66;;;18.86;81.48
56719;BME280;42597;40.636;0.278;2023-05-29T02:31:24;96843.00;;;18.30;84.47
56719;BME280;42597;40.636;0.278;2023-05-29T02:33:50;96835.31;;;18.97;81.07
56719;BME280;42597;40.636;0.278;2023-05-29T02:36:15;96839.97;;;18.62;82.14
56719;BME280;42597;40.636;0.278;2023-05-29T02:38:41;96836.13;;;18.97;80.76
56719;BME280;42597;40.636;0.278;2023-05-29T02:41:07;96839.31;;;18.89;80.65
56719;BME280;42597;40.636;0.278;2023-05-29T02:43:34;96836.50;;;18.58;82.62
56719;BME280;42597;40.636;0.278;2023-05-29T02:46:00;96845.22;;;18.42;83.67
56719;BME280;42597;40.636;0.278;2023-05-29T02:48:25;96843.50;;;19.01;80.37
56719;BME280;42597;40.636;0.278;2023-05-29T02:50:51;96846.72;;;18.50;83.16
56719;BME280;42597;40.636;0.278;2023-05-29T02:53:17;96846.00;;;18.43;83.33
56719;BME280;42597;40.636;0.278;2023-05-29T02:55:43;96841.59;;;18.53;82.92
56719;BME280;42597;40.636;0.278;2023-05-29T02:58:10;96841.03;;;18.76;81.78
56719;BME280;42597;40.636;0.278;2023-05-29T03:00:37;96850.69;;;18.42;83.60
56719;BME280;42597;40.636;0.278;2023-05-29T03:03:03;96839.50;;;18.74;81.70
56719;BME280;42597;40.636;0.278;2023-05-29T03:05:30;96846.97;;;18.70;81.48
56719;BME280;42597;40.636;0.278;2023-05-29T03:07:55;96842.75;;;18.59;81.86
56719;BME280;42597;40.636;0.278;2023-05-29T03:10:21;96839.31;;;17.99;85.35
56719;BME280;42597;40.636;0.278;2023-05-29T03:12:47;96840.81;;;18.07;85.32
56719;BME280;42597;40.636;0.278;2023-05-29T03:15:13;96836.09;;;18.56;83.08
56719;BME280;42597;40.636;0.278;2023-05-29T03:17:39;96832.41;;;18.77;81.94
56719;BME280;42597;40.636;0.278;2023-05-29T03:20:06;96835.00;;;18.50;82.64
56719;BME280;42597;40.636;0.278;2023-05-29T03:22:34;96835.50;;;18.83;81.60
56719;BME280;42597;40.636;0.278;2023-05-29T03:25:02;96819.06;;;18.83;81.33
56719;BME280;42597;40.636;0.278;2023-05-29T03:27:28;96826.38;;;18.52;82.68
56719;BME280;42597;40.636;0.278;2023-05-29T03:29:55;96822.44;;;18.56;82.56
56719;BME280;42597;40.636;0.278;2023-05-29T03:32:20;96823.34;;;17.94;85.01
56719;BME280;42597;40.636;0.278;2023-05-29T03:34:46;96817.94;;;18.35;83.27
56719;BME280;42597;40.636;0.278;2023-05-29T03:37:13;96807.81;;;18.32;82.53
56719;BME280;42597;40.636;0.278;2023-05-29T03:39:38;96798.72;;;18.01;84.87
56719;BME280;42597;40.636;0.278;2023-05-29T03:42:04;96813.38;;;18.21;84.36
56719;BME280;42597;40.636;0.278;2023-05-29T03:44:30;96817.75;;;18.53;82.94
56719;BME280;42597;40.636;0.278;2023-05-29T03:46:56;96810.94;;;18.31;83.65
56719;BME280;42597;40.636;0.278;2023-05-29T03:49:22;96813.13;;;18.05;85.45
56719;BME280;42597;40.636;0.278;2023-05-29T03:51:49;96816.56;;;18.13;84.35
56719;BME280;42597;40.636;0.278;2023-05-29T03:54:15;96817.84;;;18.46;82.85
56719;BME280;42597;40.636;0.278;2023-05-29T03:56:41;96814.66;;;18.51;81.81
56719;BME280;42597;40.636;0.278;2023-05-29T03:59:07;96817.41;;;18.51;81.34
56719;BME280;42597;40.636;0.278;2023-05-29T04:01:32;96820.50;;;18.08;83.04
56719;BME280;42597;40.636;0.278;2023-05-29T04:03:58;96821.84;;;18.38;82.50
56719;BME280;42597;40.636;0.278;2023-05-29T04:06:24;96823.97;;;18.57;81.98
56719;BME280;42597;40.636;0.278;2023-05-29T04:08:50;96829.44;;;18.57;82.23
56719;BME280;42597;40.636;0.278;2023-05-29T04:11:16;96822.63;;;18.35;82.59
56719;BME280;42597;40.636;0.278;2023-05-29T04:13:42;96815.97;;;18.77;81.56
56719;BME280;42597;40.636;0.278;2023-05-29T04:16:07;96813.88;;;18.54;80.75
56719;BME280;42597;40.636;0.278;2023-05-29T04:18:33;96817.84;;;18.46;82.36
56719;BME280;42597;40.636;0.278;2023-05-29T04:20:59;96827.09;;;18.59;82.36
56719;BME280;42597;40.636;0.278;2023-05-29T04:23:25;96818.34;;;18.34;83.20
56719;BME280;42597;40.636;0.278;2023-05-29T04:25:50;96827.41;;;18.23;82.57
56719;BME280;42597;40.636;0.278;2023-05-29T04:28:17;96823.75;;;17.89;83.44
56719;BME280;42597;40.636;0.278;2023-05-29T04:30:43;96831.88;;;18.48;81.91
56719;BME280;42597;40.636;0.278;2023-05-29T04:33:08;96836.75;;;17.70;84.26
56719;BME280;42597;40.636;0.278;2023-05-29T04:35:38;96832.56;;;18.18;83.27
56719;BME280;42597;40.636;0.278;2023-05-29T04:38:03;96834.56;;;18.10;82.56
56719;BME280;42597;40.636;0.278;2023-05-29T04:40:30;96836.00;;;18.25;82.02
56719;BME280;42597;40.636;0.278;2023-05-29T04:42:57;96841.88;;;18.20;82.81
56719;BME280;42597;40.636;0.278;2023-05-29T04:45:26;96843.66;;;17.93;84.12
56719;BME280;42597;40.636;0.278;2023-05-29T04:47:51;96840.53;;;18.43;82.45
56719;BME280;42597;40.636;0.278;2023-05-29T04:50:18;96849.69;;;18.67;79.57
56719;BME280;42597;40.636;0.278;2023-05-29T04:52:44;96845.44;;;18.17;81.93
56719;BME280;42597;40.636;0.278;2023-05-29T04:55:10;96848.06;;;18.32;83.26
56719;BME280;42597;40.636;0.278;2023-05-29T04:57:37;96854.44;;;18.18;82.86
56719;BME280;42597;40.636;0.278;2023-05-29T05:00:03;96848.94;;;18.21;82.33
56719;BME280;42597;40.636;0.278;2023-05-29T05:02:33;96849.19;;;18.38;82.49
56719;BME280;42597;40.636;0.278;2023-05-29T05:04:59;96850.00;;;18.31;81.31
56719;BME280;42597;40.636;0.278;2023-05-29T05:07:25;96856.75;;;18.19;82.06
56719;BME280;42597;40.636;0.278;2023-05-29T05:09:51;96860.34;;;18.09;82.10
56719;BME280;42597;40.636;0.278;2023-05-29T05:12:16;96856.47;;;18.03;83.76
56719;BME280;42597;40.636;0.278;2023-05-29T05:14:42;96869.53;;;17.70;83.84
56719;BME280;42597;40.636;0.278;2023-05-29T05:17:08;96869.44;;;17.92;83.26
56719;BME280;42597;40.636;0.278;2023-05-29T05:19:34;96872.34;;;18.22;82.34
56719;BME280;42597;40.636;0.278;2023-05-29T05:21:59;96875.16;;;18.60;81.82
56719;BME280;42597;40.636;0.278;2023-05-29T05:24:25;96883.00;;;18.10;82.23
56719;BME280;42597;40.636;0.278;2023-05-29T05:26:51;96870.69;;;17.76;82.40
56719;BME280;42597;40.636;0.278;2023-05-29T05:29:16;96882.16;;;18.16;83.05
56719;BME280;42597;40.636;0.278;2023-05-29T05:31:42;96879.22;;;17.89;82.63
56719;BME280;42597;40.636;0.278;2023-05-29T05:34:08;96880.41;;;18.40;81.94
56719;BME280;42597;40.636;0.278;2023-05-29T05:36:33;96877.28;;;18.42;82.68
56719;BME280;42597;40.636;0.278;2023-05-29T05:38:59;96890.09;;;18.48;81.38
56719;BME280;42597;40.636;0.278;2023-05-29T05:41:25;96888.59;;;18.44;82.10
56719;BME280;42597;40.636;0.278;2023-05-29T05:43:52;96879.38;;;18.23;80.89
56719;BME280;42597;40.636;0.278;2023-05-29T05:46:17;96887.81;;;17.88;81.59
56719;BME280;42597;40.636;0.278;2023-05-29T05:48:43;96893.25;;;18.47;82.26
56719;BME280;42597;40.636;0.278;2023-05-29T05:51:09;96892.13;;;18.41;80.62
56719;BME280;42597;40.636;0.278;2023-05-29T05:53:36;96891.56;;;18.12;81.15
56719;BME280;42597;40.636;0.278;2023-05-29T05:56:01;96890.78;;;18.15;81.34
56719;BME280;42597;40.636;0.278;2023-05-29T05:58:27;96887.34;;;18.52;80.80
56719;BME280;42597;40.636;0.278;2023-05-29T06:00:53;96877.47;;;18.65;79.28
56719;BME280;42597;40.636;0.278;2023-05-29T06:03:18;96880.63;;;18.60;80.19
56719;BME280;42597;40.636;0.278;2023-05-29T06:05:44;96885.66;;;19.10;78.53
56719;BME280;42597;40.636;0.278;2023-05-29T06:08:10;96899.41;;;19.03;78.45
56719;BME280;42597;40.636;0.278;2023-05-29T06:10:36;96889.00;;;19.25;77.41
56719;BME280;42597;40.636;0.278;2023-05-29T06:13:02;96885.91;;;19.23;77.43
56719;BME280;42597;40.636;0.278;2023-05-29T06:15:27;96891.56;;;19.05;77.20
56719;BME280;42597;40.636;0.278;2023-05-29T06:17:53;96892.38;;;19.36;77.15
56719;BME280;42597;40.636;0.278;2023-05-29T06:20:21;96898.00;;;18.88;76.38
56719;BME280;42597;40.636;0.278;2023-05-29T06:22:46;96889.50;;;18.79;77.07
56719;BME280;42597;40.636;0.278;2023-05-29T06:25:19;96897.25;;;19.21;77.26
56719;BME280;42597;40.636;0.278;2023-05-29T06:27:45;96902.00;;;18.80;78.20
56719;BME280;42597;40.636;0.278;2023-05-29T06:30:12;96900.94;;;19.08;77.66
56719;BME280;42597;40.636;0.278;2023-05-29T06:32:38;96896.28;;;19.01;77.08
56719;BME280;42597;40.636;0.278;2023-05-29T06:35:04;96897.94;;;18.95;77.74
56719;BME280;42597;40.636;0.278;2023-05-29T06:37:31;96901.50;;;18.43;83.28
56719;BME280;42597;40.636;0.278;2023-05-29T06:39:57;96898.28;;;18.52;82.70
56719;BME280;42597;40.636;0.278;2023-05-29T06:42:23;96895.25;;;18.43;83.98
56719;BME280;42597;40.636;0.278;2023-05-29T06:44:49;96906.16;;;18.46;82.64
56719;BME280;42597;40.636;0.278;2023-05-29T06:47:14;96903.94;;;18.31;84.64
56719;BME280;42597;40.636;0.278;2023-05-29T06:49:40;96911.16;;;18.03;88.08
56719;BME280;42597;40.636;0.278;2023-05-29T06:52:06;96908.34;;;18.17;88.03
56719;BME280;42597;40.636;0.278;2023-05-29T06:54:32;96913.34;;;18.30;87.18
56719;BME280;42597;40.636;0.278;2023-05-29T06:56:57;96913.34;;;18.30;86.85
56719;BME280;42597;40.636;0.278;2023-05-29T06:59:23;96910.91;;;18.87;82.03
56719;BME280;42597;40.636;0.278;2023-05-29T07:01:49;96923.66;;;19.01;79.54
56719;BME280;42597;40.636;0.278;2023-05-29T07:04:15;96930.38;;;18.96;78.90
56719;BME280;42597;40.636;0.278;2023-05-29T07:06:41;96930.53;;;19.20;77.59
56719;BME280;42597;40.636;0.278;2023-05-29T07:09:07;96928.22;;;19.18;77.63
56719;BME280;42597;40.636;0.278;2023-05-29T07:11:33;96931.59;;;18.92;78.75
56719;BME280;42597;40.636;0.278;2023-05-29T07:13:59;96941.81;;;18.88;80.43
56719;BME280;42597;40.636;0.278;2023-05-29T07:16:25;96942.94;;;18.94;84.39
56719;BME280;42597;40.636;0.278;2023-05-29T07:18:51;96936.84;;;19.13;82.65
56719;BME280;42597;40.636;0.278;2023-05-29T07:21:17;96948.03;;;18.92;83.45
56719;BME280;42597;40.636;0.278;2023-05-29T07:23:43;96953.13;;;18.90;83.67
56719;BME280;42597;40.636;0.278;2023-05-29T07:26:09;96953.88;;;18.94;84.97
56719;BME280;42597;40.636;0.278;2023-05-29T07:28:35;96952.66;;;18.98;84.07
56719;BME280;42597;40.636;0.278;2023-05-29T07:31:01;96959.50;;;19.17;83.71
56719;BME280;42597;40.636;0.278;2023-05-29T07:33:26;96964.97;;;19.17;84.65
56719;BME280;42597;40.636;0.278;2023-05-29T07:35:52;96968.44;;;19.63;77.24
56719;BME280;42597;40.636;0.278;2023-05-29T07:38:18;96972.97;;;19.77;76.04
56719;BME280;42597;40.636;0.278;2023-05-29T07:40:44;96966.34;;;19.36;82.66
56719;BME280;42597;40.636;0.278;2023-05-29T07:43:10;96977.69;;;18.97;86.19
56719;BME280;42597;40.636;0.278;2023-05-29T07:45:35;96990.28;;;18.91;86.94
56719;BME280;42597;40.636;0.278;2023-05-29T07:48:01;96987.34;;;19.12;87.41
56719;BME280;42597;40.636;0.278;2023-05-29T07:50:27;96982.03;;;19.36;86.68
56719;BME280;42597;40.636;0.278;2023-05-29T07:52:53;96984.41;;;19.71;80.00
56719;BME280;42597;40.636;0.278;2023-05-29T07:55:21;96984.63;;;19.50;88.01
56719;BME280;42597;40.636;0.278;2023-05-29T07:57:47;96998.31;;;19.50;89.47
56719;BME280;42597;40.636;0.278;2023-05-29T08:00:14;96990.84;;;19.54;90.03
56719;BME280;42597;40.636;0.278;2023-05-29T08:02:41;96988.47;;;19.56;89.19
56719;BME280;42597;40.636;0.278;2023-05-29T08:05:08;96990.63;;;19.38;85.47
56719;BME280;42597;40.636;0.278;2023-05-29T08:07:35;96990.94;;;19.43;85.31
56719;BME280;42597;40.636;0.278;2023-05-29T08:10:00;96988.09;;;19.54;84.25
56719;BME280;42597;40.636;0.278;2023-05-29T08:12:26;96993.78;;;19.74;83.70
56719;BME280;42597;40.636;0.278;2023-05-29T08:14:52;96995.09;;;19.62;83.83
56719;BME280;42597;40.636;0.278;2023-05-29T08:17:18;96987.50;;;19.73;84.68
56719;BME280;42597;40.636;0.278;2023-05-29T08:19:43;96994.91;;;19.77;86.11
56719;BME280;42597;40.636;0.278;2023-05-29T08:22:12;96992.34;;;19.93;84.33
56719;BME280;42597;40.636;0.278;2023-05-29T08:24:38;96992.22;;;20.04;82.60
56719;BME280;42597;40.636;0.278;2023-05-29T08:27:04;96983.88;;;19.84;84.05
56719;BME280;42597;40.636;0.278;2023-05-29T08:29:29;96975.00;;;20.03;84.38
56719;BME280;42597;40.636;0.278;2023-05-29T08:31:56;96987.78;;;20.13;83.56
56719;BME280;42597;40.636;0.278;2023-05-29T08:34:21;96976.94;;;20.33;81.46
56719;BME280;42597;40.636;0.278;2023-05-29T08:36:47;96972.00;;;20.48;83.95
56719;BME280;42597;40.636;0.278;2023-05-29T08:39:13;96976.91;;;20.64;82.54
56719;BME280;42597;40.636;0.278;2023-05-29T08:44:22;96975.47;;;20.56;81.32
56719;BME280;42597;40.636;0.278;2023-05-29T08:46:55;96981.13;;;20.68;79.08
56719;BME280;42597;40.636;0.278;2023-05-29T08:49:21;96972.81;;;20.76;79.60
56719;BME280;42597;40.636;0.278;2023-05-29T08:51:49;96984.13;;;20.78;76.67
56719;BME280;42597;40.636;0.278;2023-05-29T08:54:22;96987.97;;;20.84;74.39
56719;BME280;42597;40.636;0.278;2023-05-29T08:56:48;96979.00;;;21.03;73.38
56719;BME280;42597;40.636;0.278;2023-05-29T08:59:14;96979.78;;;21.04;74.01
56719;BME280;42597;40.636;0.278;2023-05-29T09:01:39;96973.53;;;21.03;75.02
56719;BME280;42597;40.636;0.278;2023-05-29T09:04:05;96971.00;;;21.12;72.13
56719;BME280;42597;40.636;0.278;2023-05-29T09:06:31;96969.31;;;21.18;74.10
56719;BME280;42597;40.636;0.278;2023-05-29T09:08:57;96966.50;;;21.22;71.45
56719;BME280;42597;40.636;0.278;2023-05-29T09:11:23;96978.34;;;21.19;72.88
56719;BME280;42597;40.636;0.278;2023-05-29T09:13:49;96969.91;;;21.30;70.63
56719;BME280;42597;40.636;0.278;2023-05-29T09:16:17;96975.59;;;21.19;70.22
56719;BME280;42597;40.636;0.278;2023-05-29T09:18:43;96972.47;;;21.17;69.48
56719;BME280;42597;40.636;0.278;2023-05-29T09:21:25;96976.66;;;21.25;68.55
56719;BME280;42597;40.636;0.278;2023-05-29T09:23:53;96983.28;;;21.28;67.95
56719;BME280;42597;40.636;0.278;2023-05-29T09:26:21;96986.03;;;21.28;67.63
56719;BME280;42597;40.636;0.278;2023-05-29T09:28:48;96979.34;;;21.29;67.28
56719;BME280;42597;40.636;0.278;2023-05-29T09:31:15;96979.25;;;21.36;64.02
56719;BME280;42597;40.636;0.278;2023-05-29T09:33:49;96975.25;;;21.60;62.80
56719;BME280;42597;40.636;0.278;2023-05-29T09:36:22;96978.56;;;21.72;65.49
56719;BME280;42597;40.636;0.278;2023-05-29T09:38:48;96978.00;;;21.60;65.22
56719;BME280;42597;40.636;0.278;2023-05-29T09:41:20;96977.34;;;21.53;65.22
56719;BME280;42597;40.636;0.278;2023-05-29T09:43:51;96974.47;;;21.80;64.94
56719;BME280;42597;40.636;0.278;2023-05-29T09:46:20;96978.06;;;21.77;62.00
56719;BME280;42597;40.636;0.278;2023-05-29T09:48:46;96975.59;;;21.62;62.93
56719;BME280;42597;40.636;0.278;2023-05-29T09:51:22;96982.16;;;21.68;62.18
56719;BME280;42597;40.636;0.278;2023-05-29T09:53:50;96985.75;;;21.65;62.35
56719;BME280;42597;40.636;0.278;2023-05-29T09:56:23;96986.59;;;21.62;63.42
56719;BME280;42597;40.636;0.278;2023-05-29T09:58:51;96986.81;;;21.52;62.29
56719;BME280;42597;40.636;0.278;2023-05-29T10:01:17;96983.38;;;21.67;64.89
56719;BME280;42597;40.636;0.278;2023-05-29T10:03:43;96984.97;;;21.85;63.11
56719;BME280;42597;40.636;0.278;2023-05-29T10:06:11;96991.81;;;21.97;60.91
56719;BME280;42597;40.636;0.278;2023-05-29T10:08:38;96986.78;;;22.11;62.21
56719;BME280;42597;40.636;0.278;2023-05-29T10:11:08;96982.06;;;22.12;62.47
56719;BME280;42597;40.636;0.278;2023-05-29T10:13:42;96986.16;;;22.24;62.89
56719;BME280;42597;40.636;0.278;2023-05-29T10:16:14;96983.25;;;22.47;60.00
56719;BME280;42597;40.636;0.278;2023-05-29T10:18:43;96982.38;;;22.34;62.07
56719;BME280;42597;40.636;0.278;2023-05-29T10:21:12;96982.66;;;22.39;61.63
56719;BME280;42597;40.636;0.278;2023-05-29T10:23:38;96979.41;;;22.45;61.28
56719;BME280;42597;40.636;0.278;2023-05-29T10:26:25;96989.09;;;22.33;60.76
56719;BME280;42597;40.636;0.278;2023-05-29T10:34:50;96975.19;;;22.56;59.50
56719;BME280;42597;40.636;0.278;2023-05-29T10:40:07;96976.59;;;22.64;62.55
56719;BME280;42597;40.636;0.278;2023-05-29T10:42:47;96978.97;;;22.62;61.02
56719;BME280;42597;40.636;0.278;2023-05-29T10:50:37;96978.66;;;22.77;61.25
56719;BME280;42597;40.636;0.278;2023-05-29T10:53:06;96976.44;;;23.04;60.45
56719;BME280;42597;40.636;0.278;2023-05-29T10:55:36;96979.88;;;23.08;62.65
56719;BME280;42597;40.636;0.278;2023-05-29T10:58:12;96970.31;;;22.97;58.97
56719;BME280;42597;40.636;0.278;2023-05-29T11:00:42;96969.50;;;23.29;58.87
56719;BME280;42597;40.636;0.278;2023-05-29T11:03:08;96974.50;;;23.18;58.56
56719;BME280;42597;40.636;0.278;2023-05-29T11:05:34;96973.25;;;23.35;55.87
56719;BME280;42597;40.636;0.278;2023-05-29T11:08:01;96967.28;;;23.24;56.09
56719;BME280;42597;40.636;0.278;2023-05-29T11:16:12;96959.16;;;23.33;54.25
56719;BME280;42597;40.636;0.278;2023-05-29T11:18:42;96956.03;;;23.31;55.69
56719;BME280;42597;40.636;0.278;2023-05-29T11:24:03;96950.88;;;23.33;53.38
56719;BME280;42597;40.636;0.278;2023-05-29T11:26:30;96952.59;;;23.27;54.20
56719;BME280;42597;40.636;0.278;2023-05-29T11:29:00;96945.31;;;23.20;56.58
56719;BME280;42597;40.636;0.278;2023-05-29T11:31:28;96949.53;;;23.25;59.27
56719;BME280;42597;40.636;0.278;2023-05-29T11:33:59;96953.13;;;23.22;55.64
56719;BME280;42597;40.636;0.278;2023-05-29T11:36:26;96949.66;;;23.34;57.72
56719;BME280;42597;40.636;0.278;2023-05-29T11:38:53;96952.09;;;23.32;55.23
56719;BME280;42597;40.636;0.278;2023-05-29T11:41:19;96944.81;;;23.38;55.22
56719;BME280;42597;40.636;0.278;2023-05-29T11:43:56;96942.75;;;23.42;56.13
56719;BME280;42597;40.636;0.278;2023-05-29T11:46:23;96941.44;;;23.47;52.95
56719;BME280;42597;40.636;0.278;2023-05-29T11:48:49;96928.38;;;23.05;56.20
56719;BME280;42597;40.636;0.278;2023-05-29T11:51:15;96933.78;;;23.09;57.14
56719;BME280;42597;40.636;0.278;2023-05-29T11:53:41;96938.63;;;23.63;52.56
56719;BME280;42597;40.636;0.278;2023-05-29T11:56:10;96937.13;;;23.75;54.94
56719;BME280;42597;40.636;0.278;2023-05-29T11:58:40;96936.25;;;23.78;52.69
56719;BME280;42597;40.636;0.278;2023-05-29T12:01:07;96938.78;;;23.72;52.97
56719;BME280;42597;40.636;0.278;2023-05-29T12:03:42;96933.63;;;23.87;51.62
56719;BME280;42597;40.636;0.278;2023-05-29T12:06:09;96931.06;;;23.80;54.90
56719;BME280;42597;40.636;0.278;2023-05-29T12:08:39;96925.44;;;23.12;54.97
56719;BME280;42597;40.636;0.278;2023-05-29T12:11:05;96932.94;;;23.41;54.06
56719;BME280;42597;40.636;0.278;2023-05-29T12:13:31;96939.22;;;23.71;54.17
56719;BME280;42597;40.636;0.278;2023-05-29T12:16:00;96932.63;;;23.81;56.34
56719;BME280;42597;40.636;0.278;2023-05-29T12:18:29;96942.22;;;23.76;59.00
56719;BME280;42597;40.636;0.278;2023-05-29T12:21:03;96930.78;;;23.61;58.01
56719;BME280;42597;40.636;0.278;2023-05-29T12:23:29;96932.53;;;23.55;56.26
56719;BME280;42597;40.636;0.278;2023-05-29T12:25:56;96934.38;;;23.75;55.26
56719;BME280;42597;40.636;0.278;2023-05-29T12:28:23;96927.41;;;23.70;52.66
56719;BME280;42597;40.636;0.278;2023-05-29T12:30:49;96919.03;;;23.74;54.96
56719;BME280;42597;40.636;0.278;2023-05-29T12:33:33;96921.94;;;23.54;51.21
56719;BME280;42597;40.636;0.278;2023-05-29T12:36:07;96924.00;;;23.79;52.70
56719;BME280;42597;40.636;0.278;2023-05-29T12:38:54;96914.25;;;23.61;53.73
56719;BME280;42597;40.636;0.278;2023-05-29T12:41:29;96925.88;;;23.69;54.27
56719;BME280;42597;40.636;0.278;2023-05-29T12:44:00;96922.56;;;23.74;53.87
56719;BME280;42597;40.636;0.278;2023-05-29T12:46:27;96922.50;;;23.61;52.24
56719;BME280;42597;40.636;0.278;2023-05-29T12:48:56;96912.41;;;23.84;54.01
56719;BME280;42597;40.636;0.278;2023-05-29T12:51:28;96912.22;;;23.49;55.15
56719;BME280;42597;40.636;0.278;2023-05-29T12:53:54;96910.03;;;23.57;55.22
56719;BME280;42597;40.636;0.278;2023-05-29T12:56:24;96914.84;;;23.69;55.34
56719;BME280;42597;40.636;0.278;2023-05-29T12:58:52;96914.84;;;23.82;55.67
56719;BME280;42597;40.636;0.278;2023-05-29T13:01:18;96918.22;;;23.60;55.85
56719;BME280;42597;40.636;0.278;2023-05-29T13:03:43;96918.41;;;23.53;53.37
56719;BME280;42597;40.636;0.278;2023-05-29T13:06:10;96916.19;;;23.77;53.66
56719;BME280;42597;40.636;0.278;2023-05-29T13:08:36;96911.78;;;23.93;52.30
56719;BME280;42597;40.636;0.278;2023-05-29T13:11:02;96905.47;;;23.79;52.75
56719;BME280;42597;40.636;0.278;2023-05-29T13:13:28;96911.81;;;23.63;53.88
56719;BME280;42597;40.636;0.278;2023-05-29T13:15:53;96906.13;;;23.83;53.41
56719;BME280;42597;40.636;0.278;2023-05-29T13:18:19;96912.44;;;23.55;49.40
56719;BME280;42597;40.636;0.278;2023-05-29T13:20:45;96908.59;;;23.94;51.73
56719;BME280;42597;40.636;0.278;2023-05-29T13:23:10;96904.59;;;23.95;49.19
56719;BME280;42597;40.636;0.278;2023-05-29T13:25:36;96905.72;;;24.10;50.04
56719;BME280;42597;40.636;0.278;2023-05-29T13:28:02;96903.72;;;23.98;52.47
56719;BME280;42597;40.636;0.278;2023-05-29T13:30:27;96912.31;;;23.75;56.27
56719;BME280;42597;40.636;0.278;2023-05-29T13:32:53;96909.41;;;23.66;55.00